<?xml version="1.0" encoding="UTF-8" standalone="no" ?>
<gpx xmlns="http://www.topografix.com/GPX/1/1" xmlns:xsi="http://www.w3.org/2001/XMLSchema-instance" xsi:schemaLocation="http://www.topografix.com/GPX/1/1 http://www.topografix.com/GPX/1/1/gpx.xsd" version="1.1" creator="VisuGPX - https://www.visugpx.com">
  <metadata>
    <name>boucles beaumont</name>
    <desc><![CDATA[boucles beaumont du périgord]]></desc>
  </metadata>
  <trk>
    <name><![CDATA[BBmt70]]></name>
    <trkseg>
      <trkpt lat="44.74413" lon="0.85703">
        <ele>152</ele>
        <time>2009-01-26T13:05:37Z</time>
      </trkpt>
      <trkpt lat="44.74433" lon="0.85708">
        <ele>158</ele>
        <time>2009-01-26T13:08:18Z</time>
      </trkpt>
      <trkpt lat="44.7445" lon="0.85725">
        <ele>160</ele>
        <time>2009-01-26T13:08:37Z</time>
      </trkpt>
      <trkpt lat="44.7447" lon="0.8574">
        <ele>159</ele>
        <time>2009-01-26T13:08:42Z</time>
      </trkpt>
      <trkpt lat="44.7449" lon="0.85755">
        <ele>161</ele>
        <time>2009-01-26T13:08:46Z</time>
      </trkpt>
      <trkpt lat="44.74508" lon="0.85765">
        <ele>163</ele>
        <time>2009-01-26T13:08:50Z</time>
      </trkpt>
      <trkpt lat="44.74528" lon="0.85775">
        <ele>166</ele>
        <time>2009-01-26T13:08:54Z</time>
      </trkpt>
      <trkpt lat="44.74545" lon="0.8579">
        <ele>165</ele>
        <time>2009-01-26T13:09:10Z</time>
      </trkpt>
      <trkpt lat="44.7456" lon="0.85818">
        <ele>169</ele>
        <time>2009-01-26T13:09:15Z</time>
      </trkpt>
      <trkpt lat="44.7457" lon="0.85843">
        <ele>171</ele>
        <time>2009-01-26T13:09:19Z</time>
      </trkpt>
      <trkpt lat="44.74578" lon="0.8587">
        <ele>173</ele>
        <time>2009-01-26T13:09:24Z</time>
      </trkpt>
      <trkpt lat="44.74595" lon="0.85885">
        <ele>174</ele>
        <time>2009-01-26T13:09:42Z</time>
      </trkpt>
      <trkpt lat="44.74613" lon="0.85875">
        <ele>173</ele>
        <time>2009-01-26T13:09:50Z</time>
      </trkpt>
      <trkpt lat="44.7463" lon="0.85883">
        <ele>171</ele>
        <time>2009-01-26T13:09:58Z</time>
      </trkpt>
      <trkpt lat="44.74623" lon="0.85908">
        <ele>172</ele>
        <time>2009-01-26T13:10:05Z</time>
      </trkpt>
      <trkpt lat="44.7461" lon="0.85928">
        <ele>173</ele>
        <time>2009-01-26T13:10:13Z</time>
      </trkpt>
      <trkpt lat="44.74603" lon="0.85953">
        <ele>177</ele>
        <time>2009-01-26T13:10:20Z</time>
      </trkpt>
      <trkpt lat="44.74598" lon="0.85978">
        <ele>173</ele>
        <time>2009-01-26T13:10:54Z</time>
      </trkpt>
      <trkpt lat="44.74613" lon="0.85995">
        <ele>174</ele>
        <time>2009-01-26T13:11:02Z</time>
      </trkpt>
      <trkpt lat="44.74628" lon="0.86013">
        <ele>169</ele>
        <time>2009-01-26T13:11:08Z</time>
      </trkpt>
      <trkpt lat="44.74643" lon="0.86028">
        <ele>169</ele>
        <time>2009-01-26T13:11:14Z</time>
      </trkpt>
      <trkpt lat="44.74663" lon="0.86043">
        <ele>170</ele>
        <time>2009-01-26T13:11:20Z</time>
      </trkpt>
      <trkpt lat="44.7468" lon="0.86053">
        <ele>171</ele>
        <time>2009-01-26T13:11:25Z</time>
      </trkpt>
      <trkpt lat="44.74698" lon="0.86063">
        <ele>173</ele>
        <time>2009-01-26T13:11:31Z</time>
      </trkpt>
      <trkpt lat="44.74855" lon="0.8645">
        <ele>151</ele>
        <time>2009-01-26T13:17:06Z</time>
      </trkpt>
      <trkpt lat="44.7487" lon="0.86468">
        <ele>146</ele>
        <time>2009-01-26T13:17:31Z</time>
      </trkpt>
      <trkpt lat="44.74868" lon="0.86495">
        <ele>160</ele>
        <time>2009-01-26T13:18:35Z</time>
      </trkpt>
      <trkpt lat="44.74863" lon="0.86523">
        <ele>160</ele>
        <time>2009-01-26T13:18:47Z</time>
      </trkpt>
      <trkpt lat="44.7485" lon="0.86543">
        <ele>156</ele>
        <time>2009-01-26T13:18:56Z</time>
      </trkpt>
      <trkpt lat="44.74835" lon="0.8656">
        <ele>152</ele>
        <time>2009-01-26T13:19:06Z</time>
      </trkpt>
      <trkpt lat="44.74853" lon="0.8657">
        <ele>151</ele>
        <time>2009-01-26T13:19:26Z</time>
      </trkpt>
      <trkpt lat="44.74875" lon="0.86575">
        <ele>146</ele>
        <time>2009-01-26T13:19:34Z</time>
      </trkpt>
      <trkpt lat="44.74898" lon="0.86583">
        <ele>143</ele>
        <time>2009-01-26T13:19:41Z</time>
      </trkpt>
      <trkpt lat="44.74915" lon="0.86593">
        <ele>138</ele>
        <time>2009-01-26T13:19:46Z</time>
      </trkpt>
      <trkpt lat="44.74933" lon="0.8661">
        <ele>135</ele>
        <time>2009-01-26T13:19:51Z</time>
      </trkpt>
      <trkpt lat="44.74953" lon="0.8662">
        <ele>134</ele>
        <time>2009-01-26T13:19:56Z</time>
      </trkpt>
      <trkpt lat="44.74973" lon="0.86623">
        <ele>132</ele>
        <time>2009-01-26T13:20:01Z</time>
      </trkpt>
      <trkpt lat="44.74993" lon="0.86625">
        <ele>133</ele>
        <time>2009-01-26T13:20:06Z</time>
      </trkpt>
      <trkpt lat="44.75015" lon="0.86625">
        <ele>132</ele>
        <time>2009-01-26T13:20:13Z</time>
      </trkpt>
      <trkpt lat="44.75033" lon="0.86633">
        <ele>127</ele>
        <time>2009-01-26T13:20:19Z</time>
      </trkpt>
      <trkpt lat="44.75053" lon="0.86638">
        <ele>125</ele>
        <time>2009-01-26T13:20:29Z</time>
      </trkpt>
      <trkpt lat="44.75073" lon="0.8664">
        <ele>129</ele>
        <time>2009-01-26T13:20:40Z</time>
      </trkpt>
      <trkpt lat="44.7509" lon="0.86648">
        <ele>131</ele>
        <time>2009-01-26T13:20:48Z</time>
      </trkpt>
    </trkseg>
  </trk>
</gpx>